sensor_id;sensor_type;location;lat;lon;timestamp;temperature;humidity
38209;DHT22;24016;52.102;11.584;2023-07-29T00:00:56;17.50;99.90
38209;DHT22;24016;52.102;11.584;2023-07-29T00:03:22;17.40;99.90
38209;DHT22;24016;52.102;11.584;2023-07-29T00:05:48;17.40;99.90
38209;DHT22;24016;52.102;11.584;2023-07-29T00:08:13;17.40;99.90
38209;DHT22;24016;52.102;11.584;2023-07-29T00:10:39;17.20;99.90
38209;DHT22;24016;52.102;11.584;2023-07-29T00:13:05;17.20;99.90
38209;DHT22;24016;52.102;11.584;2023-07-29T00:15:31;17.10;99.90
38209;DHT22;24016;52.102;11.584;2023-07-29T00:17:56;17.00;99.90
38209;DHT22;24016;52.102;11.584;2023-07-29T00:20:22;17.00;99.90
38209;DHT22;24016;52.102;11.584;2023-07-29T00:22:48;17.00;99.90
38209;DHT22;24016;52.102;11.584;2023-07-29T00:25:15;16.90;99.90
38209;DHT22;24016;52.102;11.584;2023-07-29T00:27:42;16.80;99.90
38209;DHT22;24016;52.102;11.584;2023-07-29T00:30:07;16.80;99.90
38209;DHT22;24016;52.102;11.584;2023-07-29T00:32:34;16.80;99.90
38209;DHT22;24016;52.102;11.584;2023-07-29T00:35:00;16.80;99.90
38209;DHT22;24016;52.102;11.584;2023-07-29T00:37:27;16.80;99.90
38209;DHT22;24016;52.102;11.584;2023-07-29T00:39:52;16.80;99.90
38209;DHT22;24016;52.102;11.584;2023-07-29T00:42:18;16.80;99.90
38209;DHT22;24016;52.102;11.584;2023-07-29T00:44:43;16.80;99.90
38209;DHT22;24016;52.102;11.584;2023-07-29T00:47:09;16.80;99.90
38209;DHT22;24016;52.102;11.584;2023-07-29T00:49:36;16.80;99.90
38209;DHT22;24016;52.102;11.584;2023-07-29T00:52:02;16.90;99.90
38209;DHT22;24016;52.102;11.584;2023-07-29T00:54:28;16.90;99.90
38209;DHT22;24016;52.102;11.584;2023-07-29T00:56:53;16.90;99.90
38209;DHT22;24016;52.102;11.584;2023-07-29T00:59:20;16.90;99.90
38209;DHT22;24016;52.102;11.584;2023-07-29T01:01:45;17.00;99.90
38209;DHT22;24016;52.102;11.584;2023-07-29T01:04:11;17.00;99.90
38209;DHT22;24016;52.102;11.584;2023-07-29T01:06:58;17.10;99.90
38209;DHT22;24016;52.102;11.584;2023-07-29T01:12:20;17.10;99.90
38209;DHT22;24016;52.102;11.584;2023-07-29T01:15:06;17.10;99.90
38209;DHT22;24016;52.102;11.584;2023-07-29T01:17:35;17.00;99.90
38209;DHT22;24016;52.102;11.584;2023-07-29T01:20:08;16.90;99.90
38209;DHT22;24016;52.102;11.584;2023-07-29T01:22:35;16.90;99.90
38209;DHT22;24016;52.102;11.584;2023-07-29T01:25:02;16.90;99.90
38209;DHT22;24016;52.102;11.584;2023-07-29T01:27:28;16.90;99.90
38209;DHT22;24016;52.102;11.584;2023-07-29T01:29:54;16.90;99.90
38209;DHT22;24016;52.102;11.584;2023-07-29T01:36:15;16.80;99.90
38209;DHT22;24016;52.102;11.584;2023-07-29T01:38:44;16.80;99.90
38209;DHT22;24016;52.102;11.584;2023-07-29T01:41:10;16.80;99.90
38209;DHT22;24016;52.102;11.584;2023-07-29T01:43:37;16.70;99.90
38209;DHT22;24016;52.102;11.584;2023-07-29T01:46:09;16.50;99.90
38209;DHT22;24016;52.102;11.584;2023-07-29T01:48:36;16.60;99.90
38209;DHT22;24016;52.102;11.584;2023-07-29T01:51:01;16.40;99.90
38209;DHT22;24016;52.102;11.584;2023-07-29T01:53:27;16.40;99.90
38209;DHT22;24016;52.102;11.584;2023-07-29T01:55:53;16.30;99.90
38209;DHT22;24016;52.102;11.584;2023-07-29T01:58:18;16.40;99.90
38209;DHT22;24016;52.102;11.584;2023-07-29T02:00:44;16.20;99.90
38209;DHT22;24016;52.102;11.584;2023-07-29T02:03:09;16.10;99.90
38209;DHT22;24016;52.102;11.584;2023-07-29T02:05:35;16.10;99.90
38209;DHT22;24016;52.102;11.584;2023-07-29T02:08:00;16.10;99.90
38209;DHT22;24016;52.102;11.584;2023-07-29T02:10:26;16.00;99.90
38209;DHT22;24016;52.102;11.584;2023-07-29T02:12:51;16.00;99.90
38209;DHT22;24016;52.102;11.584;2023-07-29T02:15:17;16.00;99.90
38209;DHT22;24016;52.102;11.584;2023-07-29T02:17:43;15.90;99.90
38209;DHT22;24016;52.102;11.584;2023-07-29T02:20:09;16.00;99.90
38209;DHT22;24016;52.102;11.584;2023-07-29T02:22:36;16.00;99.90
38209;DHT22;24016;52.102;11.584;2023-07-29T02:25:01;16.00;99.90
38209;DHT22;24016;52.102;11.584;2023-07-29T02:27:28;15.90;99.90
38209;DHT22;24016;52.102;11.584;2023-07-29T02:29:54;15.80;99.90
38209;DHT22;24016;52.102;11.584;2023-07-29T02:32:20;15.80;99.90
38209;DHT22;24016;52.102;11.584;2023-07-29T02:34:45;15.80;99.90
38209;DHT22;24016;52.102;11.584;2023-07-29T02:37:11;15.80;99.90
38209;DHT22;24016;52.102;11.584;2023-07-29T02:39:37;15.70;99.90
38209;DHT22;24016;52.102;11.584;2023-07-29T02:42:03;15.70;99.90
38209;DHT22;24016;52.102;11.584;2023-07-29T02:44:29;15.70;99.90
38209;DHT22;24016;52.102;11.584;2023-07-29T02:46:54;15.70;99.90
38209;DHT22;24016;52.102;11.584;2023-07-29T02:49:32;15.80;99.90
38209;DHT22;24016;52.102;11.584;2023-07-29T02:52:01;15.70;99.90
38209;DHT22;24016;52.102;11.584;2023-07-29T02:54:29;15.60;99.90
38209;DHT22;24016;52.102;11.584;2023-07-29T02:56:55;15.60;99.90
38209;DHT22;24016;52.102;11.584;2023-07-29T02:59:20;15.70;99.90
38209;DHT22;24016;52.102;11.584;2023-07-29T03:01:46;15.70;99.90
38209;DHT22;24016;52.102;11.584;2023-07-29T03:04:12;15.70;99.90
38209;DHT22;24016;52.102;11.584;2023-07-29T03:06:38;15.70;99.90
38209;DHT22;24016;52.102;11.584;2023-07-29T03:09:04;15.80;99.90
38209;DHT22;24016;52.102;11.584;2023-07-29T03:11:30;15.70;99.90
38209;DHT22;24016;52.102;11.584;2023-07-29T03:13:56;15.60;99.90
38209;DHT22;24016;52.102;11.584;2023-07-29T03:16:22;15.60;99.90
38209;DHT22;24016;52.102;11.584;2023-07-29T03:18:48;15.60;99.90
38209;DHT22;24016;52.102;11.584;2023-07-29T03:21:14;15.60;99.90
38209;DHT22;24016;52.102;11.584;2023-07-29T03:23:40;15.60;99.90
38209;DHT22;24016;52.102;11.584;2023-07-29T03:26:09;15.50;99.90
38209;DHT22;24016;52.102;11.584;2023-07-29T03:28:57;15.50;99.90
38209;DHT22;24016;52.102;11.584;2023-07-29T03:32:11;15.50;99.90
38209;DHT22;24016;52.102;11.584;2023-07-29T03:34:37;15.50;99.90
38209;DHT22;24016;52.102;11.584;2023-07-29T03:37:02;15.40;99.90
38209;DHT22;24016;52.102;11.584;2023-07-29T03:39:28;15.40;99.90
38209;DHT22;24016;52.102;11.584;2023-07-29T03:41:53;15.40;99.90
38209;DHT22;24016;52.102;11.584;2023-07-29T03:44:19;15.40;99.90
38209;DHT22;24016;52.102;11.584;2023-07-29T03:46:45;15.40;99.90
38209;DHT22;24016;52.102;11.584;2023-07-29T03:49:11;15.40;99.90
38209;DHT22;24016;52.102;11.584;2023-07-29T03:51:36;15.50;99.90
38209;DHT22;24016;52.102;11.584;2023-07-29T03:54:02;15.40;99.90
38209;DHT22;24016;52.102;11.584;2023-07-29T03:56:27;15.50;99.90
38209;DHT22;24016;52.102;11.584;2023-07-29T03:58:53;15.50;99.90
38209;DHT22;24016;52.102;11.584;2023-07-29T04:01:19;15.40;99.90
38209;DHT22;24016;52.102;11.584;2023-07-29T04:03:45;15.40;99.90
38209;DHT22;24016;52.102;11.584;2023-07-29T04:06:13;15.40;99.90
38209;DHT22;24016;52.102;11.584;2023-07-29T04:08:39;15.40;99.90
38209;DHT22;24016;52.102;11.584;2023-07-29T04:11:05;15.30;99.90
38209;DHT22;24016;52.102;11.584;2023-07-29T04:13:30;15.30;99.90
38209;DHT22;24016;52.102;11.584;2023-07-29T04:15:56;15.30;99.90
38209;DHT22;24016;52.102;11.584;2023-07-29T04:18:21;15.40;99.90
38209;DHT22;24016;52.102;11.584;2023-07-29T04:20:47;15.40;99.90
38209;DHT22;24016;52.102;11.584;2023-07-29T04:23:12;15.40;99.90
38209;DHT22;24016;52.102;11.584;2023-07-29T04:25:38;15.40;99.90
38209;DHT22;24016;52.102;11.584;2023-07-29T04:28:04;15.40;99.90
38209;DHT22;24016;52.102;11.584;2023-07-29T04:30:30;15.50;99.90
38209;DHT22;24016;52.102;11.584;2023-07-29T04:32:56;15.40;99.90
38209;DHT22;24016;52.102;11.584;2023-07-29T04:35:21;15.50;99.90
38209;DHT22;24016;52.102;11.584;2023-07-29T04:37:47;15.50;99.90
38209;DHT22;24016;52.102;11.584;2023-07-29T04:40:13;15.50;99.90
38209;DHT22;24016;52.102;11.584;2023-07-29T04:42:39;15.60;99.90
38209;DHT22;24016;52.102;11.584;2023-07-29T04:45:05;15.70;99.90
38209;DHT22;24016;52.102;11.584;2023-07-29T04:47:31;15.80;99.90
38209;DHT22;24016;52.102;11.584;2023-07-29T04:49:56;15.90;99.90
38209;DHT22;24016;52.102;11.584;2023-07-29T04:52:22;16.00;99.90
38209;DHT22;24016;52.102;11.584;2023-07-29T04:54:47;16.30;99.90
38209;DHT22;24016;52.102;11.584;2023-07-29T04:57:13;16.50;99.90
38209;DHT22;24016;52.102;11.584;2023-07-29T04:59:39;16.60;99.90
38209;DHT22;24016;52.102;11.584;2023-07-29T05:02:04;16.60;99.90
38209;DHT22;24016;52.102;11.584;2023-07-29T05:04:52;16.80;99.90
38209;DHT22;24016;52.102;11.584;2023-07-29T05:07:20;17.10;99.90
38209;DHT22;24016;52.102;11.584;2023-07-29T05:09:47;17.30;99.90
38209;DHT22;24016;52.102;11.584;2023-07-29T05:12:13;17.50;99.90
38209;DHT22;24016;52.102;11.584;2023-07-29T05:14:38;17.70;99.90
38209;DHT22;24016;52.102;11.584;2023-07-29T05:17:04;18.00;99.90
38209;DHT22;24016;52.102;11.584;2023-07-29T05:19:30;18.30;99.90
38209;DHT22;24016;52.102;11.584;2023-07-29T05:21:56;18.70;99.90
38209;DHT22;24016;52.102;11.584;2023-07-29T05:24:22;18.70;99.90
38209;DHT22;24016;52.102;11.584;2023-07-29T05:26:48;18.80;99.90
38209;DHT22;24016;52.102;11.584;2023-07-29T05:29:14;18.90;99.90
38209;DHT22;24016;52.102;11.584;2023-07-29T05:31:39;18.90;99.90
38209;DHT22;24016;52.102;11.584;2023-07-29T05:34:05;18.90;99.90
38209;DHT22;24016;52.102;11.584;2023-07-29T05:36:31;18.80;99.90
38209;DHT22;24016;52.102;11.584;2023-07-29T05:38:56;19.00;99.90
38209;DHT22;24016;52.102;11.584;2023-07-29T05:41:22;18.80;99.90
38209;DHT22;24016;52.102;11.584;2023-07-29T05:43:48;18.80;99.90
38209;DHT22;24016;52.102;11.584;2023-07-29T05:46:13;18.80;99.90
38209;DHT22;24016;52.102;11.584;2023-07-29T05:48:39;18.90;99.90
38209;DHT22;24016;52.102;11.584;2023-07-29T05:53:45;19.10;99.90
38209;DHT22;24016;52.102;11.584;2023-07-29T05:56:11;19.20;99.90
38209;DHT22;24016;52.102;11.584;2023-07-29T05:58:36;19.30;99.90
38209;DHT22;24016;52.102;11.584;2023-07-29T06:01:02;19.50;99.90
38209;DHT22;24016;52.102;11.584;2023-07-29T06:03:27;19.60;99.90
38209;DHT22;24016;52.102;11.584;2023-07-29T06:05:54;19.80;99.90
38209;DHT22;24016;52.102;11.584;2023-07-29T06:08:19;19.90;99.90
38209;DHT22;24016;52.102;11.584;2023-07-29T06:10:45;20.00;99.90
38209;DHT22;24016;52.102;11.584;2023-07-29T06:13:10;20.00;99.90
38209;DHT22;24016;52.102;11.584;2023-07-29T06:15:36;20.10;99.90
38209;DHT22;24016;52.102;11.584;2023-07-29T06:18:01;20.10;99.90
38209;DHT22;24016;52.102;11.584;2023-07-29T06:20:27;20.20;99.90
38209;DHT22;24016;52.102;11.584;2023-07-29T06:22:52;20.30;99.90
38209;DHT22;24016;52.102;11.584;2023-07-29T06:25:18;20.40;99.90
38209;DHT22;24016;52.102;11.584;2023-07-29T06:27:43;20.60;99.90
38209;DHT22;24016;52.102;11.584;2023-07-29T06:30:09;20.80;99.90
38209;DHT22;24016;52.102;11.584;2023-07-29T06:32:35;20.90;99.90
38209;DHT22;24016;52.102;11.584;2023-07-29T06:35:00;21.10;99.90
38209;DHT22;24016;52.102;11.584;2023-07-29T06:37:26;21.40;99.90
38209;DHT22;24016;52.102;11.584;2023-07-29T06:39:52;21.40;99.90
38209;DHT22;24016;52.102;11.584;2023-07-29T06:42:17;21.70;99.90
38209;DHT22;24016;52.102;11.584;2023-07-29T06:44:43;22.00;99.90
38209;DHT22;24016;52.102;11.584;2023-07-29T06:47:11;22.20;99.90
38209;DHT22;24016;52.102;11.584;2023-07-29T06:49:37;22.30;99.90
38209;DHT22;24016;52.102;11.584;2023-07-29T06:52:02;22.30;99.90
38209;DHT22;24016;52.102;11.584;2023-07-29T06:54:28;22.20;99.90
38209;DHT22;24016;52.102;11.584;2023-07-29T06:56:54;22.30;99.90
38209;DHT22;24016;52.102;11.584;2023-07-29T06:59:19;22.20;99.90
38209;DHT22;24016;52.102;11.584;2023-07-29T07:01:45;21.90;99.90
38209;DHT22;24016;52.102;11.584;2023-07-29T07:04:11;21.90;99.90
38209;DHT22;24016;52.102;11.584;2023-07-29T07:06:36;21.80;99.90
38209;DHT22;24016;52.102;11.584;2023-07-29T07:09:02;21.70;99.90
38209;DHT22;24016;52.102;11.584;2023-07-29T07:11:28;21.50;99.90
38209;DHT22;24016;52.102;11.584;2023-07-29T07:13:53;21.30;99.90
38209;DHT22;24016;52.102;11.584;2023-07-29T07:16:19;21.10;99.90
38209;DHT22;24016;52.102;11.584;2023-07-29T07:18:44;20.80;99.90
38209;DHT22;24016;52.102;11.584;2023-07-29T07:21:10;20.40;99.90
38209;DHT22;24016;52.102;11.584;2023-07-29T07:23:36;20.10;99.90
38209;DHT22;24016;52.102;11.584;2023-07-29T07:26:01;19.80;99.90
38209;DHT22;24016;52.102;11.584;2023-07-29T07:28:28;19.60;99.90
38209;DHT22;24016;52.102;11.584;2023-07-29T07:30:53;19.50;99.90
38209;DHT22;24016;52.102;11.584;2023-07-29T07:33:21;19.50;99.90
38209;DHT22;24016;52.102;11.584;2023-07-29T07:35:47;19.50;99.90
38209;DHT22;24016;52.102;11.584;2023-07-29T07:38:12;19.50;99.90
38209;DHT22;24016;52.102;11.584;2023-07-29T07:40:38;19.40;99.90
38209;DHT22;24016;52.102;11.584;2023-07-29T07:43:03;19.40;99.90
38209;DHT22;24016;52.102;11.584;2023-07-29T07:45:29;19.50;99.90
38209;DHT22;24016;52.102;11.584;2023-07-29T07:47:55;19.50;99.90
38209;DHT22;24016;52.102;11.584;2023-07-29T07:50:21;19.50;99.90
38209;DHT22;24016;52.102;11.584;2023-07-29T07:52:47;19.50;99.90
38209;DHT22;24016;52.102;11.584;2023-07-29T07:55:12;19.50;99.90
38209;DHT22;24016;52.102;11.584;2023-07-29T07:57:38;19.30;99.90
38209;DHT22;24016;52.102;11.584;2023-07-29T08:00:04;19.20;99.90
38209;DHT22;24016;52.102;11.584;2023-07-29T08:02:30;19.20;99.90
38209;DHT22;24016;52.102;11.584;2023-07-29T08:04:55;19.20;99.90
38209;DHT22;24016;52.102;11.584;2023-07-29T08:07:21;19.20;99.90
38209;DHT22;24016;52.102;11.584;2023-07-29T08:09:46;19.30;99.90
38209;DHT22;24016;52.102;11.584;2023-07-29T08:12:12;19.40;99.90
38209;DHT22;24016;52.102;11.584;2023-07-29T08:14:38;19.30;99.90
38209;DHT22;24016;52.102;11.584;2023-07-29T08:17:03;19.20;99.90
38209;DHT22;24016;52.102;11.584;2023-07-29T08:19:29;19.20;99.90
38209;DHT22;24016;52.102;11.584;2023-07-29T08:21:55;19.30;99.90
38209;DHT22;24016;52.102;11.584;2023-07-29T08:24:20;19.40;99.90
38209;DHT22;24016;52.102;11.584;2023-07-29T08:26:46;19.20;99.90
38209;DHT22;24016;52.102;11.584;2023-07-29T08:29:11;19.30;99.90
38209;DHT22;24016;52.102;11.584;2023-07-29T08:31:37;19.30;99.90
38209;DHT22;24016;52.102;11.584;2023-07-29T08:34:03;19.40;99.90
38209;DHT22;24016;52.102;11.584;2023-07-29T08:36:28;19.40;99.90
38209;DHT22;24016;52.102;11.584;2023-07-29T08:38:54;19.30;99.90
38209;DHT22;24016;52.102;11.584;2023-07-29T08:41:28;19.20;99.90
38209;DHT22;24016;52.102;11.584;2023-07-29T08:44:23;19.20;99.90
38209;DHT22;24016;52.102;11.584;2023-07-29T08:46:49;19.30;99.90
38209;DHT22;24016;52.102;11.584;2023-07-29T08:49:16;19.30;99.90
38209;DHT22;24016;52.102;11.584;2023-07-29T08:51:48;19.30;99.90
38209;DHT22;24016;52.102;11.584;2023-07-29T08:54:14;19.20;99.90
38209;DHT22;24016;52.102;11.584;2023-07-29T08:56:43;19.10;99.90
38209;DHT22;24016;52.102;11.584;2023-07-29T08:59:09;18.90;99.90
38209;DHT22;24016;52.102;11.584;2023-07-29T09:01:39;18.70;99.90
38209;DHT22;24016;52.102;11.584;2023-07-29T09:04:04;18.60;99.90
38209;DHT22;24016;52.102;11.584;2023-07-29T09:06:31;18.60;99.90
38209;DHT22;24016;52.102;11.584;2023-07-29T09:08:58;18.50;99.90
38209;DHT22;24016;52.102;11.584;2023-07-29T09:11:24;18.50;99.90
38209;DHT22;24016;52.102;11.584;2023-07-29T09:13:50;18.40;99.90
38209;DHT22;24016;52.102;11.584;2023-07-29T09:16:16;18.20;99.90
38209;DHT22;24016;52.102;11.584;2023-07-29T09:18:41;18.20;99.90
38209;DHT22;24016;52.102;11.584;2023-07-29T09:21:07;18.20;99.90
38209;DHT22;24016;52.102;11.584;2023-07-29T09:23:44;18.20;99.90
38209;DHT22;24016;52.102;11.584;2023-07-29T09:26:10;18.20;99.90
38209;DHT22;24016;52.102;11.584;2023-07-29T09:28:40;18.10;99.90
38209;DHT22;24016;52.102;11.584;2023-07-29T09:31:06;17.90;99.90
38209;DHT22;24016;52.102;11.584;2023-07-29T09:33:35;17.90;99.90
38209;DHT22;24016;52.102;11.584;2023-07-29T09:36:07;17.80;99.90
38209;DHT22;24016;52.102;11.584;2023-07-29T09:38:34;17.70;99.90
38209;DHT22;24016;52.102;11.584;2023-07-29T09:41:01;17.60;99.90
38209;DHT22;24016;52.102;11.584;2023-07-29T09:43:34;17.50;99.90
38209;DHT22;24016;52.102;11.584;2023-07-29T09:46:04;17.40;99.90
38209;DHT22;24016;52.102;11.584;2023-07-29T09:48:36;17.40;99.90
38209;DHT22;24016;52.102;11.584;2023-07-29T09:51:15;17.40;99.90
38209;DHT22;24016;52.102;11.584;2023-07-29T09:53:45;17.40;99.90
38209;DHT22;24016;52.102;11.584;2023-07-29T09:56:12;17.40;99.90
38209;DHT22;24016;52.102;11.584;2023-07-29T09:58:38;17.50;99.90
38209;DHT22;24016;52.102;11.584;2023-07-29T10:01:07;17.60;99.90
38209;DHT22;24016;52.102;11.584;2023-07-29T10:03:34;17.90;99.90
38209;DHT22;24016;52.102;11.584;2023-07-29T10:06:03;17.90;99.90
38209;DHT22;24016;52.102;11.584;2023-07-29T10:08:30;18.10;99.90
38209;DHT22;24016;52.102;11.584;2023-07-29T10:10:59;18.30;99.90
38209;DHT22;24016;52.102;11.584;2023-07-29T10:13:26;18.30;99.90
38209;DHT22;24016;52.102;11.584;2023-07-29T10:15:53;18.30;99.90
38209;DHT22;24016;52.102;11.584;2023-07-29T10:18:20;18.30;99.90
38209;DHT22;24016;52.102;11.584;2023-07-29T10:20:49;18.30;99.90
38209;DHT22;24016;52.102;11.584;2023-07-29T10:23:18;18.20;99.90
38209;DHT22;24016;52.102;11.584;2023-07-29T10:25:47;18.40;99.90
38209;DHT22;24016;52.102;11.584;2023-07-29T10:28:15;18.50;99.90
38209;DHT22;24016;52.102;11.584;2023-07-29T10:30:43;18.70;99.90
38209;DHT22;24016;52.102;11.584;2023-07-29T10:33:08;18.80;99.90
38209;DHT22;24016;52.102;11.584;2023-07-29T10:35:36;18.90;99.90
38209;DHT22;24016;52.102;11.584;2023-07-29T10:38:03;19.00;99.90
38209;DHT22;24016;52.102;11.584;2023-07-29T10:40:46;19.00;99.90
38209;DHT22;24016;52.102;11.584;2023-07-29T10:43:15;19.20;99.90
38209;DHT22;24016;52.102;11.584;2023-07-29T10:45:43;19.30;99.90
38209;DHT22;24016;52.102;11.584;2023-07-29T10:53:57;20.10;99.90
38209;DHT22;24016;52.102;11.584;2023-07-29T10:56:31;20.50;99.90
38209;DHT22;24016;52.102;11.584;2023-07-29T10:58:58;20.80;99.90
38209;DHT22;24016;52.102;11.584;2023-07-29T11:01:29;21.30;99.90
38209;DHT22;24016;52.102;11.584;2023-07-29T11:09:43;22.20;99.90
38209;DHT22;24016;52.102;11.584;2023-07-29T11:12:39;22.30;99.90
38209;DHT22;24016;52.102;11.584;2023-07-29T11:15:12;22.90;99.90
38209;DHT22;24016;52.102;11.584;2023-07-29T11:20:09;24.10;99.90
38209;DHT22;24016;52.102;11.584;2023-07-29T11:22:36;24.50;99.90
38209;DHT22;24016;52.102;11.584;2023-07-29T11:25:02;24.80;99.90
38209;DHT22;24016;52.102;11.584;2023-07-29T11:27:27;25.10;99.90
38209;DHT22;24016;52.102;11.584;2023-07-29T11:29:57;25.30;99.90
38209;DHT22;24016;52.102;11.584;2023-07-29T11:32:23;25.10;99.90
38209;DHT22;24016;52.102;11.584;2023-07-29T11:34:49;24.90;99.90
38209;DHT22;24016;52.102;11.584;2023-07-29T11:37:15;24.50;99.90
38209;DHT22;24016;52.102;11.584;2023-07-29T11:39:41;24.20;99.90
38209;DHT22;24016;52.102;11.584;2023-07-29T11:42:10;24.20;99.90
38209;DHT22;24016;52.102;11.584;2023-07-29T11:44:36;24.00;99.90
38209;DHT22;24016;52.102;11.584;2023-07-29T11:47:02;23.60;99.90
38209;DHT22;24016;52.102;11.584;2023-07-29T11:49:27;23.30;99.90
38209;DHT22;24016;52.102;11.584;2023-07-29T11:51:53;22.90;99.90
38209;DHT22;24016;52.102;11.584;2023-07-29T11:54:19;22.50;99.90
38209;DHT22;24016;52.102;11.584;2023-07-29T11:56:47;22.10;99.90
38209;DHT22;24016;52.102;11.584;2023-07-29T11:59:13;21.70;99.90
38209;DHT22;24016;52.102;11.584;2023-07-29T12:01:40;21.50;99.90
38209;DHT22;24016;52.102;11.584;2023-07-29T12:04:05;21.20;99.90
38209;DHT22;24016;52.102;11.584;2023-07-29T12:06:31;21.00;99.90
38209;DHT22;24016;52.102;11.584;2023-07-29T12:08:57;21.00;99.90
38209;DHT22;24016;52.102;11.584;2023-07-29T12:11:23;21.00;99.90
38209;DHT22;24016;52.102;11.584;2023-07-29T12:13:48;21.40;99.90
38209;DHT22;24016;52.102;11.584;2023-07-29T12:16:17;22.80;99.90
38209;DHT22;24016;52.102;11.584;2023-07-29T12:18:43;24.40;99.90
38209;DHT22;24016;52.102;11.584;2023-07-29T12:21:09;25.80;99.90
38209;DHT22;24016;52.102;11.584;2023-07-29T12:23:34;26.90;99.90
38209;DHT22;24016;52.102;11.584;2023-07-29T12:26:01;27.90;99.90
38209;DHT22;24016;52.102;11.584;2023-07-29T12:28:27;29.10;99.90
38209;DHT22;24016;52.102;11.584;2023-07-29T12:30:56;30.10;99.90
38209;DHT22;24016;52.102;11.584;2023-07-29T12:33:32;30.70;99.90
38209;DHT22;24016;52.102;11.584;2023-07-29T12:35:58;30.80;99.90
38209;DHT22;24016;52.102;11.584;2023-07-29T12:38:28;30.20;99.90
38209;DHT22;24016;52.102;11.584;2023-07-29T12:40:54;30.20;99.90
38209;DHT22;24016;52.102;11.584;2023-07-29T12:43:20;29.60;99.90
38209;DHT22;24016;52.102;11.584;2023-07-29T12:45:46;29.00;99.90
38209;DHT22;24016;52.102;11.584;2023-07-29T12:48:11;28.20;99.90
38209;DHT22;24016;52.102;11.584;2023-07-29T12:50:38;27.30;99.90
38209;DHT22;24016;52.102;11.584;2023-07-29T12:53:06;26.60;99.90
38209;DHT22;24016;52.102;11.584;2023-07-29T12:55:32;26.30;99.90
38209;DHT22;24016;52.102;11.584;2023-07-29T12:57:57;26.20;99.90
38209;DHT22;24016;52.102;11.584;2023-07-29T13:00:24;26.20;99.90
38209;DHT22;24016;52.102;11.584;2023-07-29T13:02:50;27.20;99.90
38209;DHT22;24016;52.102;11.584;2023-07-29T13:05:15;28.10;99.90
38209;DHT22;24016;52.102;11.584;2023-07-29T13:07:42;28.50;99.90
38209;DHT22;24016;52.102;11.584;2023-07-29T13:10:09;28.20;99.90
38209;DHT22;24016;52.102;11.584;2023-07-29T13:12:35;27.70;99.90
38209;DHT22;24016;52.102;11.584;2023-07-29T13:15:00;27.30;99.90
38209;DHT22;24016;52.102;11.584;2023-07-29T13:17:26;27.20;99.90
38209;DHT22;24016;52.102;11.584;2023-07-29T13:19:51;26.70;99.90
38209;DHT22;24016;52.102;11.584;2023-07-29T13:22:17;26.10;99.90
38209;DHT22;24016;52.102;11.584;2023-07-29T13:24:43;25.40;99.90
38209;DHT22;24016;52.102;11.584;2023-07-29T13:27:08;25.40;99.90
38209;DHT22;24016;52.102;11.584;2023-07-29T13:29:34;25.30;99.90
38209;DHT22;24016;52.102;11.584;2023-07-29T13:31:59;26.00;99.90
38209;DHT22;24016;52.102;11.584;2023-07-29T13:34:25;27.10;99.90
38209;DHT22;24016;52.102;11.584;2023-07-29T13:36:50;27.90;99.90
38209;DHT22;24016;52.102;11.584;2023-07-29T13:39:16;28.30;99.90
38209;DHT22;24016;52.102;11.584;2023-07-29T13:41:42;28.70;99.90
38209;DHT22;24016;52.102;11.584;2023-07-29T13:44:07;29.00;99.90
38209;DHT22;24016;52.102;11.584;2023-07-29T13:46:33;29.00;99.90
38209;DHT22;24016;52.102;11.584;2023-07-29T13:48:58;29.30;99.90
38209;DHT22;24016;52.102;11.584;2023-07-29T13:51:24;29.40;99.90
38209;DHT22;24016;52.102;11.584;2023-07-29T13:53:49;29.70;99.90
38209;DHT22;24016;52.102;11.584;2023-07-29T13:56:15;29.40;99.90
38209;DHT22;24016;52.102;11.584;2023-07-29T13:58:41;28.20;99.90
38209;DHT22;24016;52.102;11.584;2023-07-29T14:01:06;27.60;99.90
38209;DHT22;24016;52.102;11.584;2023-07-29T14:03:32;27.20;99.90
38209;DHT22;24016;52.102;11.584;2023-07-29T14:05:57;27.10;99.90
38209;DHT22;24016;52.102;11.584;2023-07-29T14:08:23;27.40;99.90
38209;DHT22;24016;52.102;11.584;2023-07-29T14:10:49;27.90;99.90
38209;DHT22;24016;52.102;11.584;2023-07-29T14:13:15;28.20;99.90
38209;DHT22;24016;52.102;11.584;2023-07-29T14:15:40;27.90;99.90
38209;DHT22;24016;52.102;11.584;2023-07-29T14:18:06;27.60;99.90
38209;DHT22;24016;52.102;11.584;2023-07-29T14:20:32;27.20;99.90
38209;DHT22;24016;52.102;11.584;2023-07-29T14:22:58;26.90;99.90
38209;DHT22;24016;52.102;11.584;2023-07-29T14:25:23;26.70;99.90
38209;DHT22;24016;52.102;11.584;2023-07-29T14:27:50;26.30;99.90
38209;DHT22;24016;52.102;11.584;2023-07-29T14:30:15;26.00;99.90
38209;DHT22;24016;52.102;11.584;2023-07-29T14:32:41;26.10;99.90
38209;DHT22;24016;52.102;11.584;2023-07-29T14:35:07;26.20;99.90
38209;DHT22;24016;52.102;11.584;2023-07-29T14:37:33;26.10;99.90
38209;DHT22;24016;52.102;11.584;2023-07-29T14:39:59;26.00;99.90
38209;DHT22;24016;52.102;11.584;2023-07-29T14:42:25;26.00;99.90
38209;DHT22;24016;52.102;11.584;2023-07-29T14:44:50;26.00;99.90
38209;DHT22;24016;52.102;11.584;2023-07-29T14:47:16;26.00;99.90
38209;DHT22;24016;52.102;11.584;2023-07-29T14:49:42;25.80;99.90
38209;DHT22;24016;52.102;11.584;2023-07-29T14:52:07;25.80;99.90
38209;DHT22;24016;52.102;11.584;2023-07-29T14:54:33;25.90;99.90
38209;DHT22;24016;52.102;11.584;2023-07-29T14:56:58;26.00;99.90
38209;DHT22;24016;52.102;11.584;2023-07-29T14:59:24;26.10;99.90
38209;DHT22;24016;52.102;11.584;2023-07-29T15:01:49;26.20;99.90
38209;DHT22;24016;52.102;11.584;2023-07-29T15:04:15;26.00;99.90
38209;DHT22;24016;52.102;11.584;2023-07-29T15:06:41;26.00;99.90
38209;DHT22;24016;52.102;11.584;2023-07-29T15:09:07;25.90;99.90
38209;DHT22;24016;52.102;11.584;2023-07-29T15:11:32;25.80;99.90
38209;DHT22;24016;52.102;11.584;2023-07-29T15:13:59;25.80;99.90
38209;DHT22;24016;52.102;11.584;2023-07-29T15:16:24;25.70;99.90
38209;DHT22;24016;52.102;11.584;2023-07-29T15:18:51;25.80;99.90
38209;DHT22;24016;52.102;11.584;2023-07-29T15:21:16;25.60;99.90
38209;DHT22;24016;52.102;11.584;2023-07-29T15:23:43;25.10;99.90
38209;DHT22;24016;52.102;11.584;2023-07-29T15:26:09;24.80;99.90
38209;DHT22;24016;52.102;11.584;2023-07-29T15:28:35;24.90;99.90
38209;DHT22;24016;52.102;11.584;2023-07-29T15:31:01;24.90;99.90
38209;DHT22;24016;52.102;11.584;2023-07-29T15:33:26;25.00;99.90
38209;DHT22;24016;52.102;11.584;2023-07-29T15:35:52;25.00;99.90